sensor_id;sensor_type;location;lat;lon;timestamp;P1;durP1;ratioP1;P2;durP2;ratioP2
70312;SDS011;57723;51.698;5.344;2023-04-24T00:00:07;0.63;;;0.40;;
70312;SDS011;57723;51.698;5.344;2023-04-24T00:02:36;0.63;;;0.40;;
70312;SDS011;57723;51.698;5.344;2023-04-24T00:05:05;0.40;;;0.40;;
70312;SDS011;57723;51.698;5.344;2023-04-24T00:07:30;0.80;;;0.45;;
70312;SDS011;57723;51.698;5.344;2023-04-24T00:09:55;0.47;;;0.43;;
70312;SDS011;57723;51.698;5.344;2023-04-24T00:12:21;0.50;;;0.50;;
70312;SDS011;57723;51.698;5.344;2023-04-24T00:14:46;0.50;;;0.40;;
70312;SDS011;57723;51.698;5.344;2023-04-24T00:17:12;0.53;;;0.40;;
70312;SDS011;57723;51.698;5.344;2023-04-24T00:19:37;1.00;;;0.40;;
70312;SDS011;57723;51.698;5.344;2023-04-24T00:22:02;0.77;;;0.50;;
70312;SDS011;57723;51.698;5.344;2023-04-24T00:24:28;0.50;;;0.40;;
70312;SDS011;57723;51.698;5.344;2023-04-24T00:26:53;0.50;;;0.40;;
70312;SDS011;57723;51.698;5.344;2023-04-24T00:29:19;0.52;;;0.35;;
70312;SDS011;57723;51.698;5.344;2023-04-24T00:31:44;0.40;;;0.40;;
70312;SDS011;57723;51.698;5.344;2023-04-24T00:34:09;0.43;;;0.43;;
70312;SDS011;57723;51.698;5.344;2023-04-24T00:36:36;1.20;;;0.43;;
70312;SDS011;57723;51.698;5.344;2023-04-24T00:39:04;2.73;;;0.50;;
70312;SDS011;57723;51.698;5.344;2023-04-24T00:41:30;6.85;;;0.73;;
70312;SDS011;57723;51.698;5.344;2023-04-24T00:43:55;1.30;;;0.60;;
70312;SDS011;57723;51.698;5.344;2023-04-24T00:46:20;2.03;;;0.50;;
70312;SDS011;57723;51.698;5.344;2023-04-24T00:48:46;0.87;;;0.57;;
70312;SDS011;57723;51.698;5.344;2023-04-24T00:51:11;0.73;;;0.50;;
70312;SDS011;57723;51.698;5.344;2023-04-24T00:53:36;0.80;;;0.50;;
70312;SDS011;57723;51.698;5.344;2023-04-24T00:56:02;4.17;;;0.70;;
70312;SDS011;57723;51.698;5.344;2023-04-24T00:58:27;1.90;;;0.50;;
70312;SDS011;57723;51.698;5.344;2023-04-24T01:00:52;0.70;;;0.40;;
70312;SDS011;57723;51.698;5.344;2023-04-24T01:03:21;0.90;;;0.50;;
70312;SDS011;57723;51.698;5.344;2023-04-24T01:05:47;0.60;;;0.50;;
70312;SDS011;57723;51.698;5.344;2023-04-24T01:08:14;0.80;;;0.43;;
70312;SDS011;57723;51.698;5.344;2023-04-24T01:10:40;0.65;;;0.50;;
70312;SDS011;57723;51.698;5.344;2023-04-24T01:13:06;0.50;;;0.50;;
70312;SDS011;57723;51.698;5.344;2023-04-24T01:15:32;1.10;;;0.50;;
70312;SDS011;57723;51.698;5.344;2023-04-24T01:17:57;0.60;;;0.50;;
70312;SDS011;57723;51.698;5.344;2023-04-24T01:20:22;0.40;;;0.40;;
70312;SDS011;57723;51.698;5.344;2023-04-24T01:22:49;0.50;;;0.43;;
70312;SDS011;57723;51.698;5.344;2023-04-24T01:25:15;0.40;;;0.40;;
70312;SDS011;57723;51.698;5.344;2023-04-24T01:27:40;1.77;;;0.43;;
70312;SDS011;57723;51.698;5.344;2023-04-24T01:30:06;0.70;;;0.40;;
70312;SDS011;57723;51.698;5.344;2023-04-24T01:32:31;0.60;;;0.43;;
70312;SDS011;57723;51.698;5.344;2023-04-24T01:34:57;0.45;;;0.43;;
70312;SDS011;57723;51.698;5.344;2023-04-24T01:37:22;0.60;;;0.60;;
70312;SDS011;57723;51.698;5.344;2023-04-24T01:39:47;0.60;;;0.50;;
70312;SDS011;57723;51.698;5.344;2023-04-24T01:42:13;0.60;;;0.57;;
70312;SDS011;57723;51.698;5.344;2023-04-24T01:44:39;0.50;;;0.47;;
70312;SDS011;57723;51.698;5.344;2023-04-24T01:47:05;0.60;;;0.50;;
70312;SDS011;57723;51.698;5.344;2023-04-24T01:49:30;0.50;;;0.50;;
70312;SDS011;57723;51.698;5.344;2023-04-24T01:51:56;1.37;;;0.50;;
70312;SDS011;57723;51.698;5.344;2023-04-24T01:54:21;0.60;;;0.50;;
70312;SDS011;57723;51.698;5.344;2023-04-24T01:56:47;0.87;;;0.57;;
70312;SDS011;57723;51.698;5.344;2023-04-24T01:59:13;0.70;;;0.50;;
70312;SDS011;57723;51.698;5.344;2023-04-24T02:01:38;0.90;;;0.50;;
70312;SDS011;57723;51.698;5.344;2023-04-24T02:04:04;0.60;;;0.60;;
70312;SDS011;57723;51.698;5.344;2023-04-24T02:06:30;0.55;;;0.55;;
70312;SDS011;57723;51.698;5.344;2023-04-24T02:08:56;0.90;;;0.60;;
70312;SDS011;57723;51.698;5.344;2023-04-24T02:11:22;1.43;;;0.60;;
70312;SDS011;57723;51.698;5.344;2023-04-24T02:13:47;0.70;;;0.60;;
70312;SDS011;57723;51.698;5.344;2023-04-24T02:16:12;1.08;;;0.55;;
70312;SDS011;57723;51.698;5.344;2023-04-24T02:18:38;1.07;;;0.60;;
70312;SDS011;57723;51.698;5.344;2023-04-24T02:21:03;0.67;;;0.60;;
70312;SDS011;57723;51.698;5.344;2023-04-24T02:23:28;0.70;;;0.60;;
70312;SDS011;57723;51.698;5.344;2023-04-24T02:25:53;2.10;;;0.70;;
70312;SDS011;57723;51.698;5.344;2023-04-24T02:28:19;0.93;;;0.67;;
70312;SDS011;57723;51.698;5.344;2023-04-24T02:30:44;0.40;;;0.40;;
70312;SDS011;57723;51.698;5.344;2023-04-24T02:33:10;0.70;;;0.60;;
70312;SDS011;57723;51.698;5.344;2023-04-24T02:35:36;0.80;;;0.70;;
70312;SDS011;57723;51.698;5.344;2023-04-24T02:38:01;0.73;;;0.50;;
70312;SDS011;57723;51.698;5.344;2023-04-24T02:40:26;0.65;;;0.50;;
70312;SDS011;57723;51.698;5.344;2023-04-24T02:42:52;0.70;;;0.70;;
70312;SDS011;57723;51.698;5.344;2023-04-24T02:45:17;0.80;;;0.60;;
70312;SDS011;57723;51.698;5.344;2023-04-24T02:47:42;0.80;;;0.50;;
70312;SDS011;57723;51.698;5.344;2023-04-24T02:50:08;0.47;;;0.47;;
70312;SDS011;57723;51.698;5.344;2023-04-24T02:52:33;0.73;;;0.53;;
70312;SDS011;57723;51.698;5.344;2023-04-24T02:54:58;0.80;;;0.70;;
70312;SDS011;57723;51.698;5.344;2023-04-24T02:57:24;0.57;;;0.57;;
70312;SDS011;57723;51.698;5.344;2023-04-24T02:59:49;0.70;;;0.70;;
70312;SDS011;57723;51.698;5.344;2023-04-24T03:02:14;1.53;;;0.60;;
70312;SDS011;57723;51.698;5.344;2023-04-24T03:04:40;0.75;;;0.60;;
70312;SDS011;57723;51.698;5.344;2023-04-24T03:07:05;0.63;;;0.60;;
70312;SDS011;57723;51.698;5.344;2023-04-24T03:09:30;0.80;;;0.60;;
70312;SDS011;57723;51.698;5.344;2023-04-24T03:11:56;0.50;;;0.50;;
70312;SDS011;57723;51.698;5.344;2023-04-24T03:14:22;0.90;;;0.70;;
70312;SDS011;57723;51.698;5.344;2023-04-24T03:16:47;1.50;;;0.60;;
70312;SDS011;57723;51.698;5.344;2023-04-24T03:19:12;1.00;;;0.60;;
70312;SDS011;57723;51.698;5.344;2023-04-24T03:21:38;0.77;;;0.60;;
70312;SDS011;57723;51.698;5.344;2023-04-24T03:24:06;0.80;;;0.60;;
70312;SDS011;57723;51.698;5.344;2023-04-24T03:26:31;1.00;;;0.70;;
70312;SDS011;57723;51.698;5.344;2023-04-24T03:28:56;1.00;;;0.70;;
70312;SDS011;57723;51.698;5.344;2023-04-24T03:31:21;1.00;;;0.77;;
70312;SDS011;57723;51.698;5.344;2023-04-24T03:33:47;1.20;;;0.70;;
70312;SDS011;57723;51.698;5.344;2023-04-24T03:36:12;0.63;;;0.63;;
70312;SDS011;57723;51.698;5.344;2023-04-24T03:38:37;1.20;;;0.60;;
70312;SDS011;57723;51.698;5.344;2023-04-24T03:41:03;2.20;;;0.70;;
70312;SDS011;57723;51.698;5.344;2023-04-24T03:43:28;0.83;;;0.70;;
70312;SDS011;57723;51.698;5.344;2023-04-24T03:45:53;1.10;;;0.80;;
70312;SDS011;57723;51.698;5.344;2023-04-24T03:48:19;0.73;;;0.67;;
70312;SDS011;57723;51.698;5.344;2023-04-24T03:50:44;1.13;;;0.70;;
70312;SDS011;57723;51.698;5.344;2023-04-24T03:53:12;1.20;;;0.80;;
70312;SDS011;57723;51.698;5.344;2023-04-24T03:55:37;0.85;;;0.60;;
70312;SDS011;57723;51.698;5.344;2023-04-24T03:58:02;0.73;;;0.70;;
70312;SDS011;57723;51.698;5.344;2023-04-24T04:00:27;1.07;;;0.70;;
70312;SDS011;57723;51.698;5.344;2023-04-24T04:02:53;1.20;;;0.70;;
70312;SDS011;57723;51.698;5.344;2023-04-24T04:05:18;1.30;;;0.80;;
70312;SDS011;57723;51.698;5.344;2023-04-24T04:07:43;1.03;;;0.70;;
70312;SDS011;57723;51.698;5.344;2023-04-24T04:10:08;1.40;;;0.60;;
70312;SDS011;57723;51.698;5.344;2023-04-24T04:12:34;2.50;;;1.20;;
70312;SDS011;57723;51.698;5.344;2023-04-24T04:14:59;1.17;;;0.60;;
70312;SDS011;57723;51.698;5.344;2023-04-24T04:17:25;1.05;;;0.80;;
70312;SDS011;57723;51.698;5.344;2023-04-24T04:19:50;1.10;;;0.70;;
70312;SDS011;57723;51.698;5.344;2023-04-24T04:22:15;1.08;;;0.80;;
70312;SDS011;57723;51.698;5.344;2023-04-24T04:24:41;1.40;;;0.80;;
70312;SDS011;57723;51.698;5.344;2023-04-24T04:27:06;1.03;;;0.70;;
70312;SDS011;57723;51.698;5.344;2023-04-24T04:29:31;1.00;;;0.80;;
70312;SDS011;57723;51.698;5.344;2023-04-24T04:31:57;0.73;;;0.60;;
70312;SDS011;57723;51.698;5.344;2023-04-24T04:34:23;0.73;;;0.70;;
70312;SDS011;57723;51.698;5.344;2023-04-24T04:36:48;0.97;;;0.70;;
70312;SDS011;57723;51.698;5.344;2023-04-24T04:39:13;0.90;;;0.70;;
70312;SDS011;57723;51.698;5.344;2023-04-24T04:41:40;1.25;;;0.80;;
70312;SDS011;57723;51.698;5.344;2023-04-24T04:44:06;1.50;;;0.90;;
70312;SDS011;57723;51.698;5.344;2023-04-24T04:46:31;2.57;;;0.80;;
70312;SDS011;57723;51.698;5.344;2023-04-24T04:49:01;1.00;;;0.70;;
70312;SDS011;57723;51.698;5.344;2023-04-24T04:51:27;1.77;;;0.80;;
70312;SDS011;57723;51.698;5.344;2023-04-24T04:53:52;1.08;;;0.80;;
70312;SDS011;57723;51.698;5.344;2023-04-24T04:56:17;0.73;;;0.60;;
70312;SDS011;57723;51.698;5.344;2023-04-24T04:58:43;0.73;;;0.60;;
70312;SDS011;57723;51.698;5.344;2023-04-24T05:01:08;1.23;;;0.70;;
70312;SDS011;57723;51.698;5.344;2023-04-24T05:03:33;0.73;;;0.70;;
70312;SDS011;57723;51.698;5.344;2023-04-24T05:05:58;1.47;;;0.83;;
70312;SDS011;57723;51.698;5.344;2023-04-24T05:08:24;2.10;;;1.90;;
70312;SDS011;57723;51.698;5.344;2023-04-24T05:10:50;5.83;;;5.43;;
70312;SDS011;57723;51.698;5.344;2023-04-24T05:13:18;17.07;;;16.00;;
70312;SDS011;57723;51.698;5.344;2023-04-24T05:15:43;28.95;;;26.27;;
70312;SDS011;57723;51.698;5.344;2023-04-24T05:18:08;41.47;;;38.87;;
70312;SDS011;57723;51.698;5.344;2023-04-24T05:20:34;53.70;;;50.60;;
70312;SDS011;57723;51.698;5.344;2023-04-24T05:22:59;56.37;;;52.97;;
70312;SDS011;57723;51.698;5.344;2023-04-24T05:25:24;59.27;;;55.97;;
70312;SDS011;57723;51.698;5.344;2023-04-24T05:27:50;62.47;;;58.77;;
70312;SDS011;57723;51.698;5.344;2023-04-24T05:30:15;57.33;;;53.95;;
70312;SDS011;57723;51.698;5.344;2023-04-24T05:32:40;63.23;;;59.17;;
70312;SDS011;57723;51.698;5.344;2023-04-24T05:35:06;7.57;;;1.47;;
70312;SDS011;57723;51.698;5.344;2023-04-24T05:37:31;5.20;;;1.10;;
70312;SDS011;57723;51.698;5.344;2023-04-24T05:39:56;4.67;;;0.90;;
70312;SDS011;57723;51.698;5.344;2023-04-24T05:42:22;5.47;;;1.03;;
70312;SDS011;57723;51.698;5.344;2023-04-24T05:44:47;3.07;;;0.90;;
70312;SDS011;57723;51.698;5.344;2023-04-24T05:47:12;3.13;;;0.93;;
70312;SDS011;57723;51.698;5.344;2023-04-24T05:49:40;1.85;;;0.90;;
70312;SDS011;57723;51.698;5.344;2023-04-24T05:52:06;1.63;;;1.00;;
70312;SDS011;57723;51.698;5.344;2023-04-24T05:54:36;3.08;;;1.10;;
70312;SDS011;57723;51.698;5.344;2023-04-24T05:57:01;5.22;;;1.20;;
70312;SDS011;57723;51.698;5.344;2023-04-24T05:59:32;5.53;;;1.20;;
70312;SDS011;57723;51.698;5.344;2023-04-24T06:01:57;1.90;;;1.10;;
70312;SDS011;57723;51.698;5.344;2023-04-24T06:04:22;2.53;;;1.10;;
70312;SDS011;57723;51.698;5.344;2023-04-24T06:06:48;2.90;;;1.10;;
70312;SDS011;57723;51.698;5.344;2023-04-24T06:09:15;4.97;;;1.10;;
70312;SDS011;57723;51.698;5.344;2023-04-24T06:11:41;2.33;;;1.13;;
70312;SDS011;57723;51.698;5.344;2023-04-24T06:14:07;3.70;;;1.30;;
70312;SDS011;57723;51.698;5.344;2023-04-24T06:16:32;6.10;;;1.10;;
70312;SDS011;57723;51.698;5.344;2023-04-24T06:18:58;2.23;;;1.20;;
70312;SDS011;57723;51.698;5.344;2023-04-24T06:21:23;2.83;;;1.10;;
70312;SDS011;57723;51.698;5.344;2023-04-24T06:23:48;3.28;;;1.10;;
70312;SDS011;57723;51.698;5.344;2023-04-24T06:26:14;2.33;;;1.40;;
70312;SDS011;57723;51.698;5.344;2023-04-24T06:28:40;2.20;;;1.10;;
70312;SDS011;57723;51.698;5.344;2023-04-24T06:31:05;5.87;;;1.27;;
70312;SDS011;57723;51.698;5.344;2023-04-24T06:33:30;2.43;;;1.30;;
70312;SDS011;57723;51.698;5.344;2023-04-24T06:35:55;2.63;;;1.10;;
70312;SDS011;57723;51.698;5.344;2023-04-24T06:38:21;3.07;;;1.20;;
70312;SDS011;57723;51.698;5.344;2023-04-24T06:40:46;3.43;;;1.23;;
70312;SDS011;57723;51.698;5.344;2023-04-24T06:43:11;5.87;;;1.23;;
70312;SDS011;57723;51.698;5.344;2023-04-24T06:45:38;2.80;;;1.27;;
70312;SDS011;57723;51.698;5.344;2023-04-24T06:48:04;1.83;;;0.90;;
70312;SDS011;57723;51.698;5.344;2023-04-24T06:50:29;3.83;;;1.10;;
70312;SDS011;57723;51.698;5.344;2023-04-24T06:52:54;4.00;;;0.90;;
70312;SDS011;57723;51.698;5.344;2023-04-24T06:55:20;4.63;;;1.13;;
70312;SDS011;57723;51.698;5.344;2023-04-24T06:57:45;3.42;;;1.10;;
70312;SDS011;57723;51.698;5.344;2023-04-24T07:00:10;1.77;;;0.90;;
70312;SDS011;57723;51.698;5.344;2023-04-24T07:02:36;3.33;;;1.13;;
70312;SDS011;57723;51.698;5.344;2023-04-24T07:05:02;1.55;;;0.90;;
70312;SDS011;57723;51.698;5.344;2023-04-24T07:07:27;2.43;;;1.10;;
70312;SDS011;57723;51.698;5.344;2023-04-24T07:09:53;2.07;;;1.20;;
70312;SDS011;57723;51.698;5.344;2023-04-24T07:12:19;2.72;;;1.20;;
70312;SDS011;57723;51.698;5.344;2023-04-24T07:14:45;4.38;;;1.48;;
70312;SDS011;57723;51.698;5.344;2023-04-24T07:17:11;2.63;;;1.13;;
70312;SDS011;57723;51.698;5.344;2023-04-24T07:19:38;2.35;;;1.10;;
70312;SDS011;57723;51.698;5.344;2023-04-24T07:22:03;2.97;;;1.00;;
70312;SDS011;57723;51.698;5.344;2023-04-24T07:24:28;1.83;;;1.00;;
70312;SDS011;57723;51.698;5.344;2023-04-24T07:26:54;1.80;;;1.07;;
70312;SDS011;57723;51.698;5.344;2023-04-24T07:29:20;2.47;;;1.00;;
70312;SDS011;57723;51.698;5.344;2023-04-24T07:31:46;2.47;;;1.20;;
70312;SDS011;57723;51.698;5.344;2023-04-24T07:34:11;1.52;;;0.98;;
70312;SDS011;57723;51.698;5.344;2023-04-24T07:36:36;2.70;;;1.00;;
70312;SDS011;57723;51.698;5.344;2023-04-24T07:39:03;2.72;;;1.10;;
70312;SDS011;57723;51.698;5.344;2023-04-24T07:41:29;1.87;;;1.00;;
70312;SDS011;57723;51.698;5.344;2023-04-24T07:43:54;1.33;;;0.90;;
70312;SDS011;57723;51.698;5.344;2023-04-24T07:46:19;1.57;;;0.90;;
70312;SDS011;57723;51.698;5.344;2023-04-24T07:48:45;3.03;;;1.00;;
70312;SDS011;57723;51.698;5.344;2023-04-24T07:51:11;1.80;;;0.90;;
70312;SDS011;57723;51.698;5.344;2023-04-24T07:53:38;1.73;;;1.00;;
70312;SDS011;57723;51.698;5.344;2023-04-24T07:56:03;1.77;;;0.90;;
70312;SDS011;57723;51.698;5.344;2023-04-24T07:58:29;1.40;;;0.80;;
70312;SDS011;57723;51.698;5.344;2023-04-24T08:00:54;1.87;;;1.10;;
70312;SDS011;57723;51.698;5.344;2023-04-24T08:03:19;1.77;;;1.00;;
70312;SDS011;57723;51.698;5.344;2023-04-24T08:05:45;1.20;;;0.70;;
70312;SDS011;57723;51.698;5.344;2023-04-24T08:08:10;1.23;;;0.90;;
70312;SDS011;57723;51.698;5.344;2023-04-24T08:10:36;1.50;;;1.10;;
70312;SDS011;57723;51.698;5.344;2023-04-24T08:13:01;1.63;;;1.03;;
70312;SDS011;57723;51.698;5.344;2023-04-24T08:15:27;2.33;;;1.00;;
70312;SDS011;57723;51.698;5.344;2023-04-24T08:17:53;2.40;;;1.23;;
70312;SDS011;57723;51.698;5.344;2023-04-24T08:20:18;3.23;;;1.20;;
70312;SDS011;57723;51.698;5.344;2023-04-24T08:22:43;1.73;;;0.90;;
70312;SDS011;57723;51.698;5.344;2023-04-24T08:25:10;1.47;;;0.80;;
70312;SDS011;57723;51.698;5.344;2023-04-24T08:27:36;3.20;;;1.40;;
70312;SDS011;57723;51.698;5.344;2023-04-24T08:30:04;2.10;;;1.38;;
70312;SDS011;57723;51.698;5.344;2023-04-24T08:32:30;2.47;;;1.10;;
70312;SDS011;57723;51.698;5.344;2023-04-24T08:34:55;2.77;;;1.17;;
70312;SDS011;57723;51.698;5.344;2023-04-24T08:37:21;1.40;;;0.88;;
70312;SDS011;57723;51.698;5.344;2023-04-24T08:39:46;1.73;;;1.10;;
70312;SDS011;57723;51.698;5.344;2023-04-24T08:42:12;2.40;;;0.90;;
70312;SDS011;57723;51.698;5.344;2023-04-24T08:44:37;2.80;;;1.15;;
70312;SDS011;57723;51.698;5.344;2023-04-24T08:47:03;3.07;;;1.00;;
70312;SDS011;57723;51.698;5.344;2023-04-24T08:49:29;3.10;;;1.02;;
70312;SDS011;57723;51.698;5.344;2023-04-24T08:51:55;3.25;;;1.20;;
70312;SDS011;57723;51.698;5.344;2023-04-24T08:54:20;1.77;;;1.10;;
70312;SDS011;57723;51.698;5.344;2023-04-24T08:56:46;3.47;;;1.40;;
70312;SDS011;57723;51.698;5.344;2023-04-24T08:59:12;2.83;;;1.00;;
70312;SDS011;57723;51.698;5.344;2023-04-24T09:01:38;1.85;;;1.08;;
70312;SDS011;57723;51.698;5.344;2023-04-24T09:04:04;2.53;;;1.20;;
70312;SDS011;57723;51.698;5.344;2023-04-24T09:06:31;4.18;;;1.10;;
70312;SDS011;57723;51.698;5.344;2023-04-24T09:08:58;2.90;;;1.30;;
70312;SDS011;57723;51.698;5.344;2023-04-24T09:11:25;6.63;;;1.55;;
70312;SDS011;57723;51.698;5.344;2023-04-24T09:13:51;5.33;;;1.07;;
70312;SDS011;57723;51.698;5.344;2023-04-24T09:16:16;6.90;;;1.00;;
70312;SDS011;57723;51.698;5.344;2023-04-24T09:18:42;4.30;;;1.15;;
70312;SDS011;57723;51.698;5.344;2023-04-24T09:21:07;2.77;;;1.00;;
70312;SDS011;57723;51.698;5.344;2023-04-24T09:23:33;3.97;;;1.10;;
70312;SDS011;57723;51.698;5.344;2023-04-24T09:25:58;2.70;;;0.90;;
70312;SDS011;57723;51.698;5.344;2023-04-24T09:28:46;2.88;;;0.85;;
70312;SDS011;57723;51.698;5.344;2023-04-24T09:31:14;1.77;;;0.88;;
70312;SDS011;57723;51.698;5.344;2023-04-24T09:33:53;3.25;;;0.80;;
70312;SDS011;57723;51.698;5.344;2023-04-24T09:36:18;3.15;;;0.88;;
70312;SDS011;57723;51.698;5.344;2023-04-24T09:38:43;3.70;;;1.00;;
70312;SDS011;57723;51.698;5.344;2023-04-24T09:41:12;2.73;;;0.70;;
70312;SDS011;57723;51.698;5.344;2023-04-24T09:43:38;4.50;;;0.82;;
70312;SDS011;57723;51.698;5.344;2023-04-24T09:46:07;2.83;;;0.90;;
70312;SDS011;57723;51.698;5.344;2023-04-24T09:48:34;1.42;;;0.80;;
70312;SDS011;57723;51.698;5.344;2023-04-24T09:51:00;3.50;;;0.90;;
70312;SDS011;57723;51.698;5.344;2023-04-24T09:53:26;2.28;;;1.00;;
70312;SDS011;57723;51.698;5.344;2023-04-24T09:55:52;2.17;;;0.70;;
70312;SDS011;57723;51.698;5.344;2023-04-24T09:58:18;1.07;;;0.63;;
70312;SDS011;57723;51.698;5.344;2023-04-24T10:00:49;2.30;;;1.02;;
70312;SDS011;57723;51.698;5.344;2023-04-24T10:03:15;1.75;;;0.98;;
70312;SDS011;57723;51.698;5.344;2023-04-24T10:05:42;2.33;;;0.90;;
70312;SDS011;57723;51.698;5.344;2023-04-24T10:08:11;1.80;;;0.73;;
70312;SDS011;57723;51.698;5.344;2023-04-24T10:10:40;3.75;;;0.70;;
70312;SDS011;57723;51.698;5.344;2023-04-24T10:13:06;1.60;;;0.90;;
70312;SDS011;57723;51.698;5.344;2023-04-24T10:15:32;1.83;;;0.70;;
70312;SDS011;57723;51.698;5.344;2023-04-24T10:17:58;1.67;;;0.73;;
70312;SDS011;57723;51.698;5.344;2023-04-24T10:20:25;5.97;;;0.70;;
70312;SDS011;57723;51.698;5.344;2023-04-24T10:22:52;2.20;;;0.88;;
70312;SDS011;57723;51.698;5.344;2023-04-24T10:25:21;1.27;;;0.80;;
70312;SDS011;57723;51.698;5.344;2023-04-24T10:27:47;1.85;;;0.80;;
70312;SDS011;57723;51.698;5.344;2023-04-24T10:30:13;1.10;;;0.60;;
70312;SDS011;57723;51.698;5.344;2023-04-24T10:32:39;2.57;;;0.70;;
70312;SDS011;57723;51.698;5.344;2023-04-24T10:35:08;1.08;;;0.60;;
70312;SDS011;57723;51.698;5.344;2023-04-24T10:38:17;1.27;;;0.70;;
70312;SDS011;57723;51.698;5.344;2023-04-24T10:40:40;0.75;;;0.70;;
70312;SDS011;57723;51.698;5.344;2023-04-24T10:43:05;1.88;;;0.70;;
70312;SDS011;57723;51.698;5.344;2023-04-24T10:45:33;0.82;;;0.60;;
70312;SDS011;57723;51.698;5.344;2023-04-24T10:48:02;2.00;;;0.95;;
70312;SDS011;57723;51.698;5.344;2023-04-24T10:50:28;1.33;;;0.90;;
70312;SDS011;57723;51.698;5.344;2023-04-24T10:53:04;4.87;;;0.73;;
70312;SDS011;57723;51.698;5.344;2023-04-24T10:55:40;2.35;;;0.98;;
70312;SDS011;57723;51.698;5.344;2023-04-24T10:58:06;1.75;;;0.90;;
70312;SDS011;57723;51.698;5.344;2023-04-24T11:00:31;1.23;;;0.80;;
70312;SDS011;57723;51.698;5.344;2023-04-24T11:02:57;2.80;;;0.83;;
70312;SDS011;57723;51.698;5.344;2023-04-24T11:05:22;2.88;;;0.80;;
70312;SDS011;57723;51.698;5.344;2023-04-24T11:08:14;2.08;;;0.90;;
70312;SDS011;57723;51.698;5.344;2023-04-24T11:13:06;1.83;;;0.83;;
70312;SDS011;57723;51.698;5.344;2023-04-24T11:15:31;2.20;;;0.90;;
70312;SDS011;57723;51.698;5.344;2023-04-24T11:17:57;3.33;;;0.83;;
70312;SDS011;57723;51.698;5.344;2023-04-24T11:20:23;2.13;;;0.87;;
70312;SDS011;57723;51.698;5.344;2023-04-24T11:22:48;3.05;;;0.80;;
70312;SDS011;57723;51.698;5.344;2023-04-24T11:25:17;1.88;;;0.70;;
70312;SDS011;57723;51.698;5.344;2023-04-24T11:27:43;2.80;;;0.80;;
70312;SDS011;57723;51.698;5.344;2023-04-24T11:30:09;4.97;;;0.82;;
70312;SDS011;57723;51.698;5.344;2023-04-24T11:32:36;3.72;;;0.70;;
70312;SDS011;57723;51.698;5.344;2023-04-24T11:35:03;1.77;;;1.00;;
70312;SDS011;57723;51.698;5.344;2023-04-24T11:37:30;3.67;;;1.15;;
70312;SDS011;57723;51.698;5.344;2023-04-24T11:39:58;3.17;;;1.20;;
70312;SDS011;57723;51.698;5.344;2023-04-24T11:42:23;2.77;;;0.80;;
70312;SDS011;57723;51.698;5.344;2023-04-24T11:44:51;3.33;;;1.00;;
70312;SDS011;57723;51.698;5.344;2023-04-24T11:47:17;2.38;;;0.85;;
70312;SDS011;57723;51.698;5.344;2023-04-24T11:49:42;4.37;;;0.90;;
70312;SDS011;57723;51.698;5.344;2023-04-24T11:52:07;3.33;;;0.90;;
70312;SDS011;57723;51.698;5.344;2023-04-24T11:54:33;1.80;;;1.00;;
70312;SDS011;57723;51.698;5.344;2023-04-24T11:56:58;3.38;;;1.00;;
70312;SDS011;57723;51.698;5.344;2023-04-24T11:59:23;2.83;;;0.80;;
70312;SDS011;57723;51.698;5.344;2023-04-24T12:01:49;2.93;;;0.83;;
70312;SDS011;57723;51.698;5.344;2023-04-24T12:04:16;1.80;;;0.80;;
70312;SDS011;57723;51.698;5.344;2023-04-24T12:09:26;3.75;;;0.80;;
70312;SDS011;57723;51.698;5.344;2023-04-24T12:11:54;1.00;;;0.70;;
70312;SDS011;57723;51.698;5.344;2023-04-24T12:14:23;2.50;;;0.90;;
70312;SDS011;57723;51.698;5.344;2023-04-24T12:16:49;4.60;;;0.90;;
70312;SDS011;57723;51.698;5.344;2023-04-24T12:19:24;2.10;;;0.93;;
70312;SDS011;57723;51.698;5.344;2023-04-24T12:22:03;5.43;;;1.15;;
70312;SDS011;57723;51.698;5.344;2023-04-24T12:24:28;1.73;;;0.90;;
70312;SDS011;57723;51.698;5.344;2023-04-24T12:26:54;2.60;;;0.70;;
70312;SDS011;57723;51.698;5.344;2023-04-24T12:29:22;2.38;;;0.70;;
70312;SDS011;57723;51.698;5.344;2023-04-24T12:31:48;1.35;;;0.80;;
70312;SDS011;57723;51.698;5.344;2023-04-24T12:34:25;2.43;;;0.60;;
70312;SDS011;57723;51.698;5.344;2023-04-24T12:36:50;2.80;;;0.87;;
70312;SDS011;57723;51.698;5.344;2023-04-24T12:39:19;2.88;;;1.00;;
70312;SDS011;57723;51.698;5.344;2023-04-24T12:41:57;1.42;;;0.80;;
70312;SDS011;57723;51.698;5.344;2023-04-24T12:44:32;1.83;;;0.70;;
70312;SDS011;57723;51.698;5.344;2023-04-24T12:46:59;1.90;;;0.80;;
70312;SDS011;57723;51.698;5.344;2023-04-24T12:49:24;1.67;;;0.90;;
70312;SDS011;57723;51.698;5.344;2023-04-24T12:51:50;1.73;;;1.10;;
70312;SDS011;57723;51.698;5.344;2023-04-24T12:54:15;1.43;;;0.83;;
70312;SDS011;57723;51.698;5.344;2023-04-24T12:56:40;2.13;;;0.90;;
70312;SDS011;57723;51.698;5.344;2023-04-24T12:59:05;1.80;;;0.70;;
70312;SDS011;57723;51.698;5.344;2023-04-24T13:01:31;1.47;;;0.67;;
70312;SDS011;57723;51.698;5.344;2023-04-24T13:03:56;1.53;;;0.50;;
70312;SDS011;57723;51.698;5.344;2023-04-24T13:06:21;1.67;;;0.70;;
70312;SDS011;57723;51.698;5.344;2023-04-24T13:08:46;3.17;;;0.70;;
70312;SDS011;57723;51.698;5.344;2023-04-24T13:11:13;1.05;;;0.68;;
70312;SDS011;57723;51.698;5.344;2023-04-24T13:13:38;1.70;;;0.70;;
70312;SDS011;57723;51.698;5.344;2023-04-24T13:16:04;2.20;;;0.90;;
70312;SDS011;57723;51.698;5.344;2023-04-24T13:18:29;2.37;;;0.77;;
70312;SDS011;57723;51.698;5.344;2023-04-24T13:20:55;2.97;;;0.60;;
70312;SDS011;57723;51.698;5.344;2023-04-24T13:23:20;1.58;;;0.70;;
70312;SDS011;57723;51.698;5.344;2023-04-24T13:25:45;1.80;;;1.00;;
70312;SDS011;57723;51.698;5.344;2023-04-24T13:28:12;1.73;;;0.60;;
70312;SDS011;57723;51.698;5.344;2023-04-24T13:30:37;1.90;;;0.80;;
70312;SDS011;57723;51.698;5.344;2023-04-24T13:33:02;2.07;;;0.80;;
70312;SDS011;57723;51.698;5.344;2023-04-24T13:35:28;1.00;;;0.60;;
70312;SDS011;57723;51.698;5.344;2023-04-24T13:37:53;1.60;;;0.60;;
70312;SDS011;57723;51.698;5.344;2023-04-24T13:40:18;1.20;;;0.60;;
70312;SDS011;57723;51.698;5.344;2023-04-24T13:42:44;1.17;;;0.70;;
70312;SDS011;57723;51.698;5.344;2023-04-24T13:45:09;2.00;;;0.83;;
70312;SDS011;57723;51.698;5.344;2023-04-24T13:47:35;1.83;;;0.70;;
70312;SDS011;57723;51.698;5.344;2023-04-24T13:50:01;1.38;;;0.60;;
70312;SDS011;57723;51.698;5.344;2023-04-24T13:52:26;2.37;;;0.67;;
70312;SDS011;57723;51.698;5.344;2023-04-24T13:54:51;1.63;;;0.60;;
70312;SDS011;57723;51.698;5.344;2023-04-24T13:57:16;1.13;;;0.60;;
70312;SDS011;57723;51.698;5.344;2023-04-24T13:59:42;1.83;;;0.70;;
70312;SDS011;57723;51.698;5.344;2023-04-24T14:02:07;1.40;;;0.70;;
70312;SDS011;57723;51.698;5.344;2023-04-24T14:04:32;1.43;;;0.67;;
70312;SDS011;57723;51.698;5.344;2023-04-24T14:06:58;3.63;;;0.70;;
70312;SDS011;57723;51.698;5.344;2023-04-24T14:09:23;1.67;;;0.70;;
70312;SDS011;57723;51.698;5.344;2023-04-24T14:11:48;3.33;;;1.10;;
70312;SDS011;57723;51.698;5.344;2023-04-24T14:14:14;1.43;;;0.70;;
70312;SDS011;57723;51.698;5.344;2023-04-24T14:16:39;1.00;;;0.50;;
70312;SDS011;57723;51.698;5.344;2023-04-24T14:19:05;1.40;;;0.70;;
70312;SDS011;57723;51.698;5.344;2023-04-24T14:21:31;1.42;;;0.60;;
70312;SDS011;57723;51.698;5.344;2023-04-24T14:23:56;0.80;;;0.60;;
70312;SDS011;57723;51.698;5.344;2023-04-24T14:26:21;1.43;;;0.67;;
70312;SDS011;57723;51.698;5.344;2023-04-24T14:28:47;2.05;;;0.70;;
70312;SDS011;57723;51.698;5.344;2023-04-24T14:31:12;1.00;;;0.60;;
70312;SDS011;57723;51.698;5.344;2023-04-24T14:33:37;1.07;;;0.60;;
70312;SDS011;57723;51.698;5.344;2023-04-24T14:36:02;2.00;;;0.60;;
70312;SDS011;57723;51.698;5.344;2023-04-24T14:38:29;0.90;;;0.50;;
70312;SDS011;57723;51.698;5.344;2023-04-24T14:40:56;1.65;;;0.70;;
70312;SDS011;57723;51.698;5.344;2023-04-24T14:43:22;1.58;;;0.70;;
70312;SDS011;57723;51.698;5.344;2023-04-24T14:45:48;0.90;;;0.57;;